sensor_id;sensor_type;location;lat;lon;timestamp;P1;durP1;ratioP1;P2;durP2;ratioP2
12232;SDS011;6179;51.748;8.728;2023-07-20T00:01:22;8.40;;;2.13;;
12232;SDS011;6179;51.748;8.728;2023-07-20T00:07:23;3.10;;;1.77;;
12232;SDS011;6179;51.748;8.728;2023-07-20T00:13:24;12.00;;;2.60;;
12232;SDS011;6179;51.748;8.728;2023-07-20T00:19:26;3.70;;;1.80;;
12232;SDS011;6179;51.748;8.728;2023-07-20T00:25:27;5.20;;;1.70;;
12232;SDS011;6179;51.748;8.728;2023-07-20T00:31:28;5.07;;;3.37;;
12232;SDS011;6179;51.748;8.728;2023-07-20T00:37:29;8.90;;;3.57;;
12232;SDS011;6179;51.748;8.728;2023-07-20T00:43:30;4.60;;;2.00;;
12232;SDS011;6179;51.748;8.728;2023-07-20T00:49:30;7.30;;;2.53;;
12232;SDS011;6179;51.748;8.728;2023-07-20T00:55:32;2.13;;;1.77;;
12232;SDS011;6179;51.748;8.728;2023-07-20T01:01:32;12.60;;;3.03;;
12232;SDS011;6179;51.748;8.728;2023-07-20T01:07:43;5.70;;;2.30;;
12232;SDS011;6179;51.748;8.728;2023-07-20T01:13:52;4.63;;;3.83;;
12232;SDS011;6179;51.748;8.728;2023-07-20T01:19:53;4.70;;;3.63;;
12232;SDS011;6179;51.748;8.728;2023-07-20T01:32:06;7.53;;;4.23;;
12232;SDS011;6179;51.748;8.728;2023-07-20T01:38:08;7.10;;;4.67;;
12232;SDS011;6179;51.748;8.728;2023-07-20T01:44:10;8.13;;;5.10;;
12232;SDS011;6179;51.748;8.728;2023-07-20T01:50:10;9.50;;;5.70;;
12232;SDS011;6179;51.748;8.728;2023-07-20T01:56:11;12.47;;;5.50;;
12232;SDS011;6179;51.748;8.728;2023-07-20T02:02:12;15.33;;;7.77;;
12232;SDS011;6179;51.748;8.728;2023-07-20T02:08:12;11.57;;;6.90;;
12232;SDS011;6179;51.748;8.728;2023-07-20T02:14:13;13.60;;;6.53;;
12232;SDS011;6179;51.748;8.728;2023-07-20T02:20:14;7.23;;;6.53;;
12232;SDS011;6179;51.748;8.728;2023-07-20T02:26:14;6.73;;;5.00;;
12232;SDS011;6179;51.748;8.728;2023-07-20T02:32:15;12.60;;;5.50;;
12232;SDS011;6179;51.748;8.728;2023-07-20T02:38:16;9.80;;;5.33;;
12232;SDS011;6179;51.748;8.728;2023-07-20T02:44:16;7.73;;;6.33;;
12232;SDS011;6179;51.748;8.728;2023-07-20T02:50:17;11.90;;;6.37;;
12232;SDS011;6179;51.748;8.728;2023-07-20T02:56:18;8.90;;;6.33;;
12232;SDS011;6179;51.748;8.728;2023-07-20T03:02:18;8.93;;;6.00;;
12232;SDS011;6179;51.748;8.728;2023-07-20T03:08:19;16.60;;;6.77;;
12232;SDS011;6179;51.748;8.728;2023-07-20T03:14:20;10.23;;;6.50;;
12232;SDS011;6179;51.748;8.728;2023-07-20T03:20:20;14.40;;;7.37;;
12232;SDS011;6179;51.748;8.728;2023-07-20T03:26:21;13.50;;;8.50;;
12232;SDS011;6179;51.748;8.728;2023-07-20T03:32:21;10.03;;;7.70;;
12232;SDS011;6179;51.748;8.728;2023-07-20T03:38:22;13.80;;;7.80;;
12232;SDS011;6179;51.748;8.728;2023-07-20T03:44:23;14.40;;;7.37;;
12232;SDS011;6179;51.748;8.728;2023-07-20T03:50:24;15.23;;;8.13;;
12232;SDS011;6179;51.748;8.728;2023-07-20T03:56:24;16.60;;;9.33;;
12232;SDS011;6179;51.748;8.728;2023-07-20T04:02:25;14.90;;;9.33;;
12232;SDS011;6179;51.748;8.728;2023-07-20T04:08:26;19.83;;;10.67;;
12232;SDS011;6179;51.748;8.728;2023-07-20T04:14:27;11.37;;;8.80;;
12232;SDS011;6179;51.748;8.728;2023-07-20T04:20:27;10.93;;;7.50;;
12232;SDS011;6179;51.748;8.728;2023-07-20T04:26:28;19.37;;;9.40;;
12232;SDS011;6179;51.748;8.728;2023-07-20T04:32:28;17.80;;;10.23;;
12232;SDS011;6179;51.748;8.728;2023-07-20T04:38:30;11.13;;;8.40;;
12232;SDS011;6179;51.748;8.728;2023-07-20T04:44:31;14.30;;;8.47;;
12232;SDS011;6179;51.748;8.728;2023-07-20T04:50:32;13.90;;;7.73;;
12232;SDS011;6179;51.748;8.728;2023-07-20T04:56:32;14.07;;;8.33;;
12232;SDS011;6179;51.748;8.728;2023-07-20T05:02:33;14.33;;;8.37;;
12232;SDS011;6179;51.748;8.728;2023-07-20T05:08:34;10.83;;;7.80;;
12232;SDS011;6179;51.748;8.728;2023-07-20T05:14:34;11.13;;;7.63;;
12232;SDS011;6179;51.748;8.728;2023-07-20T05:20:35;11.33;;;5.70;;
12232;SDS011;6179;51.748;8.728;2023-07-20T05:26:37;12.83;;;7.23;;
12232;SDS011;6179;51.748;8.728;2023-07-20T05:32:38;9.13;;;6.10;;
12232;SDS011;6179;51.748;8.728;2023-07-20T05:38:38;11.70;;;5.73;;
12232;SDS011;6179;51.748;8.728;2023-07-20T05:44:39;5.70;;;2.67;;
12232;SDS011;6179;51.748;8.728;2023-07-20T05:50:44;3.37;;;2.17;;
12232;SDS011;6179;51.748;8.728;2023-07-20T05:56:45;2.03;;;1.83;;
12232;SDS011;6179;51.748;8.728;2023-07-20T06:02:46;3.47;;;2.43;;
12232;SDS011;6179;51.748;8.728;2023-07-20T06:08:47;2.50;;;1.97;;
12232;SDS011;6179;51.748;8.728;2023-07-20T06:14:48;2.40;;;1.67;;
12232;SDS011;6179;51.748;8.728;2023-07-20T06:20:49;2.30;;;1.80;;
12232;SDS011;6179;51.748;8.728;2023-07-20T06:26:50;2.70;;;1.80;;
12232;SDS011;6179;51.748;8.728;2023-07-20T06:32:51;1.27;;;1.17;;
12232;SDS011;6179;51.748;8.728;2023-07-20T06:38:52;3.77;;;1.80;;
12232;SDS011;6179;51.748;8.728;2023-07-20T06:44:53;1.90;;;1.77;;
12232;SDS011;6179;51.748;8.728;2023-07-20T06:50:53;2.30;;;1.43;;
12232;SDS011;6179;51.748;8.728;2023-07-20T06:56:55;1.17;;;1.07;;
12232;SDS011;6179;51.748;8.728;2023-07-20T07:02:56;1.10;;;1.00;;
12232;SDS011;6179;51.748;8.728;2023-07-20T07:08:56;5.80;;;1.57;;
12232;SDS011;6179;51.748;8.728;2023-07-20T07:14:57;4.10;;;1.50;;
12232;SDS011;6179;51.748;8.728;2023-07-20T07:20:58;1.13;;;1.00;;
12232;SDS011;6179;51.748;8.728;2023-07-20T07:26:59;1.00;;;0.77;;
12232;SDS011;6179;51.748;8.728;2023-07-20T07:33:01;1.63;;;1.10;;
12232;SDS011;6179;51.748;8.728;2023-07-20T07:39:01;1.90;;;1.80;;
12232;SDS011;6179;51.748;8.728;2023-07-20T07:45:03;0.40;;;0.40;;
12232;SDS011;6179;51.748;8.728;2023-07-20T07:51:04;0.40;;;0.40;;
12232;SDS011;6179;51.748;8.728;2023-07-20T07:57:04;0.63;;;0.63;;
12232;SDS011;6179;51.748;8.728;2023-07-20T08:03:06;0.70;;;0.50;;
12232;SDS011;6179;51.748;8.728;2023-07-20T08:09:07;0.90;;;0.60;;
12232;SDS011;6179;51.748;8.728;2023-07-20T08:15:07;1.33;;;0.50;;
12232;SDS011;6179;51.748;8.728;2023-07-20T08:21:10;1.27;;;0.47;;
12232;SDS011;6179;51.748;8.728;2023-07-20T08:27:11;0.47;;;0.47;;
12232;SDS011;6179;51.748;8.728;2023-07-20T08:33:15;0.40;;;0.37;;
12232;SDS011;6179;51.748;8.728;2023-07-20T08:39:19;8.30;;;0.40;;
12232;SDS011;6179;51.748;8.728;2023-07-20T08:45:22;0.30;;;0.30;;
12232;SDS011;6179;51.748;8.728;2023-07-20T08:51:25;0.40;;;0.30;;
12232;SDS011;6179;51.748;8.728;2023-07-20T08:57:27;0.90;;;0.40;;
12232;SDS011;6179;51.748;8.728;2023-07-20T09:03:28;0.37;;;0.37;;
12232;SDS011;6179;51.748;8.728;2023-07-20T09:09:28;0.47;;;0.40;;
12232;SDS011;6179;51.748;8.728;2023-07-20T09:15:29;0.40;;;0.40;;
12232;SDS011;6179;51.748;8.728;2023-07-20T09:21:30;0.60;;;0.37;;
12232;SDS011;6179;51.748;8.728;2023-07-20T09:27:34;0.40;;;0.40;;
12232;SDS011;6179;51.748;8.728;2023-07-20T09:33:38;0.73;;;0.73;;
12232;SDS011;6179;51.748;8.728;2023-07-20T09:39:45;1.20;;;0.40;;
12232;SDS011;6179;51.748;8.728;2023-07-20T09:45:46;1.93;;;0.30;;
12232;SDS011;6179;51.748;8.728;2023-07-20T09:51:46;0.37;;;0.33;;
12232;SDS011;6179;51.748;8.728;2023-07-20T09:57:48;0.50;;;0.40;;
12232;SDS011;6179;51.748;8.728;2023-07-20T10:03:49;0.30;;;0.30;;
12232;SDS011;6179;51.748;8.728;2023-07-20T10:09:53;0.30;;;0.30;;
12232;SDS011;6179;51.748;8.728;2023-07-20T10:16:03;0.70;;;0.40;;
12232;SDS011;6179;51.748;8.728;2023-07-20T10:22:24;0.47;;;0.30;;
12232;SDS011;6179;51.748;8.728;2023-07-20T10:28:26;1.23;;;0.30;;
12232;SDS011;6179;51.748;8.728;2023-07-20T10:34:27;0.93;;;0.50;;
12232;SDS011;6179;51.748;8.728;2023-07-20T10:46:33;0.37;;;0.37;;
12232;SDS011;6179;51.748;8.728;2023-07-20T10:52:39;0.30;;;0.30;;
12232;SDS011;6179;51.748;8.728;2023-07-20T10:58:40;1.47;;;0.40;;
12232;SDS011;6179;51.748;8.728;2023-07-20T11:04:42;4.63;;;0.50;;
12232;SDS011;6179;51.748;8.728;2023-07-20T11:10:44;0.50;;;0.40;;
12232;SDS011;6179;51.748;8.728;2023-07-20T11:16:46;3.13;;;0.40;;
12232;SDS011;6179;51.748;8.728;2023-07-20T11:22:47;0.60;;;0.40;;
12232;SDS011;6179;51.748;8.728;2023-07-20T11:28:49;0.40;;;0.40;;
12232;SDS011;6179;51.748;8.728;2023-07-20T11:34:50;0.40;;;0.40;;
12232;SDS011;6179;51.748;8.728;2023-07-20T11:40:51;0.40;;;0.37;;
12232;SDS011;6179;51.748;8.728;2023-07-20T11:53:08;1.37;;;0.50;;
12232;SDS011;6179;51.748;8.728;2023-07-20T11:59:09;0.43;;;0.40;;
12232;SDS011;6179;51.748;8.728;2023-07-20T12:05:11;0.40;;;0.40;;
12232;SDS011;6179;51.748;8.728;2023-07-20T12:11:11;0.40;;;0.40;;
12232;SDS011;6179;51.748;8.728;2023-07-20T12:17:12;0.40;;;0.40;;
12232;SDS011;6179;51.748;8.728;2023-07-20T12:23:13;2.87;;;0.40;;
12232;SDS011;6179;51.748;8.728;2023-07-20T12:29:14;0.70;;;0.50;;
12232;SDS011;6179;51.748;8.728;2023-07-20T12:35:14;0.50;;;0.50;;
12232;SDS011;6179;51.748;8.728;2023-07-20T12:41:15;0.53;;;0.50;;
12232;SDS011;6179;51.748;8.728;2023-07-20T12:47:17;0.60;;;0.50;;
12232;SDS011;6179;51.748;8.728;2023-07-20T12:53:18;0.60;;;0.60;;
12232;SDS011;6179;51.748;8.728;2023-07-20T12:59:19;0.60;;;0.60;;
12232;SDS011;6179;51.748;8.728;2023-07-20T13:05:19;0.60;;;0.57;;
12232;SDS011;6179;51.748;8.728;2023-07-20T13:11:20;0.60;;;0.60;;
12232;SDS011;6179;51.748;8.728;2023-07-20T13:17:22;0.60;;;0.60;;
12232;SDS011;6179;51.748;8.728;2023-07-20T13:23:23;0.70;;;0.70;;
12232;SDS011;6179;51.748;8.728;2023-07-20T13:29:24;0.83;;;0.80;;
12232;SDS011;6179;51.748;8.728;2023-07-20T13:35:25;0.80;;;0.80;;
12232;SDS011;6179;51.748;8.728;2023-07-20T13:41:26;0.80;;;0.80;;
12232;SDS011;6179;51.748;8.728;2023-07-20T13:47:26;0.50;;;0.50;;
12232;SDS011;6179;51.748;8.728;2023-07-20T13:53:28;0.50;;;0.50;;
12232;SDS011;6179;51.748;8.728;2023-07-20T13:59:29;0.50;;;0.40;;
12232;SDS011;6179;51.748;8.728;2023-07-20T14:05:29;0.30;;;0.30;;
12232;SDS011;6179;51.748;8.728;2023-07-20T14:11:30;0.60;;;0.40;;
12232;SDS011;6179;51.748;8.728;2023-07-20T14:17:31;0.40;;;0.40;;
12232;SDS011;6179;51.748;8.728;2023-07-20T14:23:31;0.30;;;0.30;;
12232;SDS011;6179;51.748;8.728;2023-07-20T14:29:32;0.40;;;0.40;;
12232;SDS011;6179;51.748;8.728;2023-07-20T14:35:36;0.50;;;0.30;;
12232;SDS011;6179;51.748;8.728;2023-07-20T14:41:37;11.97;;;0.40;;
12232;SDS011;6179;51.748;8.728;2023-07-20T14:47:38;0.40;;;0.40;;
12232;SDS011;6179;51.748;8.728;2023-07-20T14:53:39;3.33;;;0.40;;
12232;SDS011;6179;51.748;8.728;2023-07-20T14:59:40;0.40;;;0.30;;
12232;SDS011;6179;51.748;8.728;2023-07-20T15:05:41;0.30;;;0.30;;
12232;SDS011;6179;51.748;8.728;2023-07-20T15:11:42;0.40;;;0.30;;
12232;SDS011;6179;51.748;8.728;2023-07-20T15:17:43;0.30;;;0.30;;
12232;SDS011;6179;51.748;8.728;2023-07-20T15:23:45;1.03;;;0.30;;
12232;SDS011;6179;51.748;8.728;2023-07-20T15:29:45;0.33;;;0.30;;
12232;SDS011;6179;51.748;8.728;2023-07-20T15:35:46;0.30;;;0.30;;
12232;SDS011;6179;51.748;8.728;2023-07-20T15:41:47;0.30;;;0.30;;
12232;SDS011;6179;51.748;8.728;2023-07-20T15:47:48;0.70;;;0.33;;
12232;SDS011;6179;51.748;8.728;2023-07-20T15:53:49;0.40;;;0.40;;
12232;SDS011;6179;51.748;8.728;2023-07-20T15:59:49;0.30;;;0.30;;
12232;SDS011;6179;51.748;8.728;2023-07-20T16:05:50;0.30;;;0.30;;
12232;SDS011;6179;51.748;8.728;2023-07-20T16:11:52;0.40;;;0.30;;
12232;SDS011;6179;51.748;8.728;2023-07-20T16:17:53;0.40;;;0.40;;
12232;SDS011;6179;51.748;8.728;2023-07-20T16:23:53;0.30;;;0.30;;
12232;SDS011;6179;51.748;8.728;2023-07-20T16:29:54;1.10;;;0.40;;
12232;SDS011;6179;51.748;8.728;2023-07-20T16:35:54;0.40;;;0.30;;
12232;SDS011;6179;51.748;8.728;2023-07-20T16:41:56;0.40;;;0.40;;
12232;SDS011;6179;51.748;8.728;2023-07-20T16:47:56;3.73;;;0.50;;
12232;SDS011;6179;51.748;8.728;2023-07-20T16:53:57;1.33;;;0.40;;
12232;SDS011;6179;51.748;8.728;2023-07-20T16:59:58;0.30;;;0.30;;
12232;SDS011;6179;51.748;8.728;2023-07-20T17:05:59;0.40;;;0.30;;
12232;SDS011;6179;51.748;8.728;2023-07-20T17:11:59;0.30;;;0.30;;
12232;SDS011;6179;51.748;8.728;2023-07-20T17:18:00;7.27;;;0.30;;
12232;SDS011;6179;51.748;8.728;2023-07-20T17:24:01;0.50;;;0.40;;
12232;SDS011;6179;51.748;8.728;2023-07-20T17:30:01;0.30;;;0.30;;
12232;SDS011;6179;51.748;8.728;2023-07-20T17:36:02;0.30;;;0.30;;
12232;SDS011;6179;51.748;8.728;2023-07-20T17:42:03;0.67;;;0.30;;
12232;SDS011;6179;51.748;8.728;2023-07-20T17:48:04;0.30;;;0.30;;
12232;SDS011;6179;51.748;8.728;2023-07-20T17:54:05;0.30;;;0.30;;
12232;SDS011;6179;51.748;8.728;2023-07-20T18:00:05;0.70;;;0.30;;
12232;SDS011;6179;51.748;8.728;2023-07-20T18:06:09;0.30;;;0.30;;
12232;SDS011;6179;51.748;8.728;2023-07-20T18:12:10;0.40;;;0.33;;
12232;SDS011;6179;51.748;8.728;2023-07-20T18:18:11;0.30;;;0.30;;
12232;SDS011;6179;51.748;8.728;2023-07-20T18:24:11;2.67;;;0.40;;
12232;SDS011;6179;51.748;8.728;2023-07-20T18:30:12;0.70;;;0.40;;
12232;SDS011;6179;51.748;8.728;2023-07-20T18:36:18;0.90;;;0.60;;
12232;SDS011;6179;51.748;8.728;2023-07-20T18:42:18;1.90;;;0.30;;
12232;SDS011;6179;51.748;8.728;2023-07-20T18:48:19;4.10;;;0.40;;
12232;SDS011;6179;51.748;8.728;2023-07-20T18:54:20;1.20;;;0.40;;
12232;SDS011;6179;51.748;8.728;2023-07-20T19:00:21;0.30;;;0.30;;
12232;SDS011;6179;51.748;8.728;2023-07-20T19:06:21;0.60;;;0.40;;
12232;SDS011;6179;51.748;8.728;2023-07-20T19:12:22;0.47;;;0.40;;
12232;SDS011;6179;51.748;8.728;2023-07-20T19:18:23;0.40;;;0.40;;
12232;SDS011;6179;51.748;8.728;2023-07-20T19:24:25;3.50;;;0.50;;
12232;SDS011;6179;51.748;8.728;2023-07-20T19:30:27;0.40;;;0.40;;
12232;SDS011;6179;51.748;8.728;2023-07-20T19:36:27;0.30;;;0.30;;
12232;SDS011;6179;51.748;8.728;2023-07-20T19:42:28;0.40;;;0.30;;
12232;SDS011;6179;51.748;8.728;2023-07-20T19:48:28;0.40;;;0.40;;
12232;SDS011;6179;51.748;8.728;2023-07-20T19:54:29;1.60;;;0.30;;
12232;SDS011;6179;51.748;8.728;2023-07-20T20:00:30;0.40;;;0.40;;
12232;SDS011;6179;51.748;8.728;2023-07-20T20:06:31;0.50;;;0.40;;
12232;SDS011;6179;51.748;8.728;2023-07-20T20:12:32;0.47;;;0.40;;
12232;SDS011;6179;51.748;8.728;2023-07-20T20:18:33;0.43;;;0.40;;
12232;SDS011;6179;51.748;8.728;2023-07-20T20:24:34;0.57;;;0.40;;
12232;SDS011;6179;51.748;8.728;2023-07-20T20:30:37;0.80;;;0.43;;
12232;SDS011;6179;51.748;8.728;2023-07-20T20:36:37;0.40;;;0.40;;
12232;SDS011;6179;51.748;8.728;2023-07-20T20:42:40;0.60;;;0.40;;
12232;SDS011;6179;51.748;8.728;2023-07-20T20:48:40;0.40;;;0.40;;
12232;SDS011;6179;51.748;8.728;2023-07-20T20:54:45;5.10;;;0.50;;
12232;SDS011;6179;51.748;8.728;2023-07-20T21:00:46;0.53;;;0.43;;
12232;SDS011;6179;51.748;8.728;2023-07-20T21:06:47;0.40;;;0.40;;
12232;SDS011;6179;51.748;8.728;2023-07-20T21:12:47;0.40;;;0.40;;
12232;SDS011;6179;51.748;8.728;2023-07-20T21:18:48;0.70;;;0.70;;
12232;SDS011;6179;51.748;8.728;2023-07-20T21:24:48;0.50;;;0.50;;
12232;SDS011;6179;51.748;8.728;2023-07-20T21:31:05;0.60;;;0.60;;
12232;SDS011;6179;51.748;8.728;2023-07-20T21:37:07;1.67;;;0.80;;
12232;SDS011;6179;51.748;8.728;2023-07-20T21:43:08;2.60;;;1.00;;
12232;SDS011;6179;51.748;8.728;2023-07-20T21:49:10;0.60;;;0.60;;
12232;SDS011;6179;51.748;8.728;2023-07-20T21:55:11;0.93;;;0.67;;
12232;SDS011;6179;51.748;8.728;2023-07-20T22:01:11;1.77;;;1.03;;
12232;SDS011;6179;51.748;8.728;2023-07-20T22:07:12;0.90;;;0.70;;
12232;SDS011;6179;51.748;8.728;2023-07-20T22:13:15;3.00;;;0.70;;
12232;SDS011;6179;51.748;8.728;2023-07-20T22:19:18;0.60;;;0.50;;
12232;SDS011;6179;51.748;8.728;2023-07-20T22:25:18;0.60;;;0.60;;
12232;SDS011;6179;51.748;8.728;2023-07-20T22:31:19;2.63;;;0.70;;
12232;SDS011;6179;51.748;8.728;2023-07-20T22:37:20;0.50;;;0.50;;
12232;SDS011;6179;51.748;8.728;2023-07-20T22:43:20;1.47;;;0.87;;
12232;SDS011;6179;51.748;8.728;2023-07-20T22:49:24;0.80;;;0.77;;
12232;SDS011;6179;51.748;8.728;2023-07-20T22:55:25;1.00;;;0.60;;
12232;SDS011;6179;51.748;8.728;2023-07-20T23:01:26;0.83;;;0.80;;
12232;SDS011;6179;51.748;8.728;2023-07-20T23:07:26;1.17;;;0.83;;
12232;SDS011;6179;51.748;8.728;2023-07-20T23:13:27;0.60;;;0.60;;
12232;SDS011;6179;51.748;8.728;2023-07-20T23:19:28;0.70;;;0.60;;
12232;SDS011;6179;51.748;8.728;2023-07-20T23:25:30;0.80;;;0.80;;
12232;SDS011;6179;51.748;8.728;2023-07-20T23:31:31;0.50;;;0.50;;
12232;SDS011;6179;51.748;8.728;2023-07-20T23:37:31;0.80;;;0.57;;
12232;SDS011;6179;51.748;8.728;2023-07-20T23:43:35;0.90;;;0.90;;
12232;SDS011;6179;51.748;8.728;2023-07-20T23:49:37;0.80;;;0.80;;
12232;SDS011;6179;51.748;8.728;2023-07-20T23:55:38;0.93;;;0.60;;
